createdAt,value
2018-06-13T00:01:29.353Z,6.20
2018-06-13T00:03:56.625Z,3.97
2018-06-13T00:06:23.880Z,2.87
2018-06-13T00:08:51.157Z,2.70
2018-06-13T00:11:18.389Z,3.30
2018-06-13T00:13:45.629Z,3.03
2018-06-13T00:16:12.853Z,3.13
2018-06-13T00:18:40.114Z,3.03
2018-06-13T00:21:07.350Z,2.60
2018-06-13T00:23:34.637Z,3.20
2018-06-13T00:26:01.857Z,2.60
2018-06-13T00:28:29.082Z,2.70
2018-06-13T00:30:56.327Z,3.40
2018-06-13T00:33:23.569Z,3.23
2018-06-13T00:35:50.813Z,4.07
2018-06-13T00:38:18.057Z,2.60
2018-06-13T00:40:45.326Z,2.47
2018-06-13T00:43:12.561Z,1.90
2018-06-13T00:45:39.807Z,6.37
2018-06-13T00:48:07.070Z,1.87
2018-06-13T00:50:34.394Z,1.90
2018-06-13T00:53:01.778Z,2.13
2018-06-13T00:55:29.051Z,1.73
2018-06-13T00:57:56.301Z,6.03
2018-06-13T01:00:23.561Z,6.73
2018-06-13T01:02:50.831Z,2.17
2018-06-13T01:05:18.073Z,2.20
2018-06-13T01:07:45.327Z,2.00
2018-06-13T01:10:12.555Z,2.87
2018-06-13T01:12:39.884Z,6.70
2018-06-13T01:15:07.120Z,2.60
2018-06-13T01:17:34.425Z,2.07
2018-06-13T01:20:01.666Z,2.07
2018-06-13T01:22:28.897Z,1.97
2018-06-13T01:24:56.170Z,2.60
2018-06-13T01:27:24.125Z,1.87
2018-06-13T01:29:51.369Z,2.27
2018-06-13T01:32:18.612Z,3.07
2018-06-13T01:34:45.854Z,2.10
2018-06-13T01:37:13.094Z,2.33
2018-06-13T01:39:40.377Z,2.30
2018-06-13T01:42:07.630Z,4.83
2018-06-13T01:44:34.913Z,5.20
2018-06-13T01:47:02.169Z,3.67
2018-06-13T01:49:29.422Z,3.07
2018-06-13T01:51:56.665Z,2.63
2018-06-13T01:54:23.878Z,2.80
2018-06-13T01:56:51.136Z,1.80
2018-06-13T01:59:18.398Z,2.57
2018-06-13T02:01:45.624Z,3.17
2018-06-13T02:04:12.868Z,2.80
2018-06-13T02:06:40.150Z,3.20
2018-06-13T02:09:07.857Z,4.50
2018-06-13T02:11:35.090Z,6.23
2018-06-13T02:14:02.321Z,4.47
2018-06-13T02:16:29.559Z,5.13
2018-06-13T02:18:56.811Z,4.20
2018-06-13T02:21:24.049Z,4.13
2018-06-13T02:23:51.313Z,5.30
2018-06-13T02:26:18.559Z,3.70
2018-06-13T02:28:45.814Z,4.20
2018-06-13T02:31:13.073Z,6.00
2018-06-13T02:33:40.305Z,6.47
2018-06-13T02:36:07.591Z,6.13
2018-06-13T02:38:34.819Z,6.00
2018-06-13T02:41:02.077Z,5.60
2018-06-13T02:43:29.339Z,7.80
2018-06-13T02:45:56.573Z,5.03
2018-06-13T02:48:23.858Z,6.00
2018-06-13T02:50:51.093Z,6.00
2018-06-13T02:53:18.345Z,6.17
2018-06-13T02:55:45.593Z,7.70
2018-06-13T02:58:12.830Z,6.43
2018-06-13T03:00:40.125Z,6.53
2018-06-13T03:03:07.368Z,9.30
2018-06-13T03:05:34.643Z,7.10
2018-06-13T03:08:01.876Z,8.17
2018-06-13T03:10:29.137Z,5.43
2018-06-13T03:12:56.379Z,7.33
2018-06-13T03:15:23.614Z,7.10
2018-06-13T03:17:50.908Z,6.33
2018-06-13T03:20:18.147Z,6.37
2018-06-13T03:22:45.426Z,6.13
2018-06-13T03:25:12.661Z,5.43
2018-06-13T03:27:39.968Z,7.53
2018-06-13T03:30:07.208Z,6.53
2018-06-13T03:32:34.457Z,10.53
2018-06-13T03:35:01.717Z,8.73
2018-06-13T03:37:28.961Z,6.50
2018-06-13T03:39:56.261Z,10.03
2018-06-13T03:42:23.529Z,9.00
2018-06-13T03:44:50.836Z,13.00
2018-06-13T03:47:18.105Z,7.97
2018-06-13T03:49:45.356Z,8.00
2018-06-13T03:52:12.595Z,12.07
2018-06-13T03:54:39.825Z,11.07
2018-06-13T03:57:07.089Z,9.53
2018-06-13T03:59:34.350Z,9.23
2018-06-13T04:02:01.607Z,8.93
2018-06-13T04:04:28.848Z,9.97
2018-06-13T04:06:56.109Z,11.33
2018-06-13T04:09:23.364Z,12.40
2018-06-13T04:11:50.636Z,8.90
2018-06-13T04:14:17.882Z,8.43
2018-06-13T04:16:45.126Z,7.50
2018-06-13T04:19:12.377Z,7.53
2018-06-13T04:21:39.636Z,6.83
2018-06-13T04:24:06.905Z,8.23
2018-06-13T04:26:34.151Z,8.60
2018-06-13T04:29:01.415Z,7.77
2018-06-13T04:31:28.654Z,8.50
2018-06-13T04:33:55.989Z,7.60
2018-06-13T04:36:23.279Z,9.97
2018-06-13T04:38:50.561Z,9.97
2018-06-13T04:41:17.918Z,10.27
2018-06-13T04:43:45.165Z,11.07
2018-06-13T04:46:12.437Z,10.47
2018-06-13T04:48:39.816Z,10.03
2018-06-13T04:51:07.173Z,9.97
2018-06-13T04:53:34.422Z,9.73
2018-06-13T04:56:01.714Z,10.57
2018-06-13T04:58:28.953Z,10.40
2018-06-13T05:00:56.182Z,9.67
2018-06-13T05:03:23.439Z,9.10
2018-06-13T05:05:50.710Z,9.57
2018-06-13T05:08:17.969Z,9.13
2018-06-13T05:10:46.240Z,9.73
2018-06-13T05:13:13.481Z,10.00
2018-06-13T05:15:40.745Z,9.10
2018-06-13T05:18:07.979Z,9.30
2018-06-13T05:20:35.234Z,9.30
2018-06-13T05:23:03.479Z,7.40
2018-06-13T05:25:30.712Z,6.97
2018-06-13T05:27:57.984Z,9.30
2018-06-13T05:30:25.220Z,8.53
2018-06-13T05:32:52.499Z,8.80
2018-06-13T05:35:19.794Z,8.43
2018-06-13T05:37:47.162Z,9.47
2018-06-13T05:40:14.389Z,8.20
2018-06-13T05:42:41.677Z,14.00
2018-06-13T05:45:08.931Z,6.53
2018-06-13T05:47:36.203Z,6.77
2018-06-13T05:50:03.455Z,7.23
2018-06-13T05:52:30.727Z,8.30
2018-06-13T05:54:58.021Z,8.20
2018-06-13T05:57:25.524Z,7.47
2018-06-13T05:59:52.781Z,6.97
2018-06-13T06:02:20.042Z,7.37
2018-06-13T06:04:47.373Z,7.43
2018-06-13T06:07:14.618Z,6.27
2018-06-13T06:09:41.853Z,7.63
2018-06-13T06:12:09.181Z,7.53
2018-06-13T06:14:36.493Z,7.10
2018-06-13T06:17:03.730Z,8.80
2018-06-13T06:19:42.843Z,7.50
2018-06-13T06:22:10.097Z,8.40
2018-06-13T06:24:37.393Z,7.40
2018-06-13T06:27:04.687Z,17.27
2018-06-13T06:29:31.904Z,8.43
2018-06-13T06:31:59.134Z,6.60
2018-06-13T06:34:26.385Z,7.20
2018-06-13T06:36:53.688Z,6.53
2018-06-13T06:39:21.170Z,6.83
2018-06-13T06:41:48.430Z,7.33
2018-06-13T06:44:15.717Z,7.00
2018-06-13T06:46:42.949Z,6.97
2018-06-13T06:49:10.223Z,8.97
2018-06-13T06:51:37.492Z,8.73
2018-06-13T06:54:04.747Z,22.13
2018-06-13T06:56:31.997Z,6.77
2018-06-13T06:58:59.263Z,6.80
2018-06-13T07:01:26.541Z,6.23
2018-06-13T07:03:53.772Z,7.40
2018-06-13T07:06:21.117Z,7.30
2018-06-13T07:08:48.366Z,6.27
2018-06-13T07:11:15.622Z,6.90
2018-06-13T07:13:42.908Z,9.17
2018-06-13T07:16:10.172Z,10.20
2018-06-13T07:18:37.409Z,6.60
2018-06-13T07:21:04.786Z,6.97
2018-06-13T07:23:32.048Z,5.90
2018-06-13T07:25:59.313Z,6.10
2018-06-13T07:28:26.548Z,5.10
2018-06-13T07:30:53.803Z,6.07
2018-06-13T07:33:21.045Z,6.60
2018-06-13T07:35:48.307Z,8.23
2018-06-13T07:38:15.541Z,5.90
2018-06-13T07:40:42.801Z,5.40
2018-06-13T07:43:10.062Z,10.93
2018-06-13T07:45:37.295Z,6.03
2018-06-13T07:48:04.554Z,4.80
2018-06-13T07:50:31.825Z,5.37
2018-06-13T07:52:59.073Z,6.13
2018-06-13T07:55:26.369Z,6.27
2018-06-13T07:57:53.657Z,9.63
2018-06-13T08:00:20.981Z,9.23
2018-06-13T08:02:48.265Z,6.57
2018-06-13T08:05:15.526Z,7.07
2018-06-13T08:07:42.769Z,7.80
2018-06-13T08:10:10.034Z,7.73
2018-06-13T08:12:37.281Z,8.43
2018-06-13T08:15:04.642Z,7.67
2018-06-13T08:17:31.909Z,9.00
2018-06-13T08:19:59.179Z,8.57
2018-06-13T08:22:26.443Z,8.83
2018-06-13T08:24:54.576Z,9.87
2018-06-13T08:27:21.835Z,9.03
2018-06-13T08:29:49.085Z,12.97
2018-06-13T08:32:16.348Z,10.67
2018-06-13T08:34:43.651Z,12.07
2018-06-13T08:37:10.925Z,11.70
2018-06-13T08:39:38.192Z,16.13
2018-06-13T08:42:05.470Z,16.70
2018-06-13T08:44:32.771Z,13.27
2018-06-13T08:47:00.021Z,17.73
2018-06-13T08:49:27.301Z,17.23
2018-06-13T08:51:54.545Z,14.47
2018-06-13T08:54:21.793Z,14.10
2018-06-13T08:56:49.087Z,19.50
2018-06-13T08:59:16.323Z,15.30
2018-06-13T09:01:43.590Z,17.50
2018-06-13T09:04:10.862Z,19.70
2018-06-13T09:06:38.134Z,20.90
2018-06-13T09:09:06.690Z,19.40
2018-06-13T09:11:33.943Z,17.10
2018-06-13T09:14:01.297Z,18.07
2018-06-13T09:16:28.610Z,16.73
2018-06-13T09:18:55.858Z,22.57
2018-06-13T09:21:23.130Z,17.30
2018-06-13T09:23:50.418Z,20.80
2018-06-13T09:26:17.681Z,15.53
2018-06-13T09:28:44.911Z,21.40
2018-06-13T09:31:12.391Z,22.70
2018-06-13T09:33:39.749Z,26.03
2018-06-13T09:36:07.222Z,15.37
2018-06-13T09:38:34.475Z,16.10
2018-06-13T09:41:01.805Z,18.00
2018-06-13T09:43:29.082Z,14.33
2018-06-13T09:46:03.272Z,16.27
2018-06-13T09:48:24.820Z,15.43
2018-06-13T09:50:52.107Z,15.57
2018-06-13T09:53:19.365Z,16.03
2018-06-13T09:55:46.632Z,23.07
2018-06-13T09:58:13.886Z,15.23
2018-06-13T10:00:46.594Z,19.13
2018-06-13T10:03:13.867Z,19.80
2018-06-13T10:05:41.438Z,17.87
2018-06-13T10:08:08.696Z,19.80
2018-06-13T10:10:35.976Z,17.77
2018-06-13T10:13:03.258Z,26.57
2018-06-13T10:15:30.764Z,22.83
2018-06-13T10:17:58.017Z,26.70
2018-06-13T10:20:25.465Z,26.00
2018-06-13T10:22:53.001Z,19.43
2018-06-13T10:25:20.275Z,13.90
2018-06-13T10:27:47.746Z,27.23
2018-06-13T10:30:15.016Z,14.73
2018-06-13T10:32:42.366Z,18.93
2018-06-13T10:35:11.087Z,28.63
2018-06-13T10:37:38.354Z,67.30
2018-06-13T10:40:05.846Z,76.87
2018-06-13T10:42:33.209Z,84.17
2018-06-13T10:45:00.453Z,31.80
2018-06-13T10:47:27.728Z,11.97
2018-06-13T10:49:54.985Z,23.43
2018-06-13T10:52:22.262Z,14.43
2018-06-13T10:54:49.503Z,16.70
2018-06-13T10:57:16.770Z,19.90
2018-06-13T10:59:44.036Z,15.47
2018-06-13T11:02:11.294Z,17.07
2018-06-13T11:04:38.735Z,19.27
2018-06-13T11:07:06.233Z,15.03
2018-06-13T11:09:33.522Z,15.40
2018-06-13T11:12:01.421Z,13.07
2018-06-13T11:14:28.769Z,13.47
2018-06-13T11:16:56.098Z,17.20
2018-06-13T11:19:23.377Z,17.60
2018-06-13T11:21:50.646Z,14.63
2018-06-13T11:24:17.882Z,12.13
2018-06-13T11:26:45.209Z,16.13
2018-06-13T11:29:12.476Z,16.50
2018-06-13T11:31:39.800Z,21.80
2018-06-13T11:34:07.198Z,15.47
2018-06-13T11:36:34.453Z,15.60
2018-06-13T11:39:01.729Z,14.43
2018-06-13T11:41:29.195Z,17.70
2018-06-13T11:43:56.608Z,15.27
2018-06-13T11:46:23.864Z,18.93
2018-06-13T11:48:51.285Z,20.10
2018-06-13T11:51:18.537Z,16.83
2018-06-13T11:53:45.775Z,13.87
2018-06-13T11:56:13.050Z,17.80
2018-06-13T11:58:40.347Z,13.83
2018-06-13T12:01:08.820Z,15.80
2018-06-13T12:03:36.274Z,18.80
2018-06-13T12:06:03.560Z,14.47
2018-06-13T12:08:31.089Z,16.13
2018-06-13T12:10:58.705Z,18.07
2018-06-13T12:13:26.805Z,12.67
2018-06-13T12:15:54.050Z,11.30
2018-06-13T12:18:21.317Z,16.30
2018-06-13T12:20:49.011Z,21.23
2018-06-13T12:23:16.301Z,14.47
2018-06-13T12:25:43.611Z,20.53
2018-06-13T12:28:10.871Z,15.00
2018-06-13T12:30:38.176Z,21.37
2018-06-13T12:33:05.562Z,13.17
2018-06-13T12:35:32.823Z,14.10
2018-06-13T12:38:00.078Z,14.70
2018-06-13T12:40:27.330Z,12.10
2018-06-13T12:42:54.561Z,13.33
2018-06-13T12:45:21.822Z,12.70
2018-06-13T12:47:49.057Z,17.10
2018-06-13T12:50:16.502Z,16.97
2018-06-13T12:52:43.776Z,13.13
2018-06-13T12:55:11.074Z,14.87
2018-06-13T12:57:38.441Z,12.83
2018-06-13T13:00:06.527Z,14.07
2018-06-13T13:02:33.858Z,13.63
2018-06-13T13:05:01.281Z,21.57
2018-06-13T13:07:28.562Z,16.33
2018-06-13T13:09:55.835Z,14.23
2018-06-13T13:12:23.092Z,14.00
2018-06-13T13:14:50.387Z,15.50
2018-06-13T13:17:17.700Z,17.00
2018-06-13T13:19:44.967Z,13.50
2018-06-13T13:22:12.263Z,16.40
2018-06-13T13:24:39.606Z,18.07
2018-06-13T13:27:06.841Z,16.33
2018-06-13T13:29:34.114Z,18.07
2018-06-13T13:32:01.386Z,23.30
2018-06-13T13:34:28.702Z,14.50
2018-06-13T13:36:56.080Z,14.07
2018-06-13T13:39:23.395Z,17.90
2018-06-13T13:41:50.663Z,19.67
2018-06-13T13:44:17.923Z,19.77
2018-06-13T13:46:45.181Z,15.53
2018-06-13T13:49:12.502Z,20.10
2018-06-13T13:51:39.844Z,21.00
2018-06-13T13:54:07.202Z,23.30
2018-06-13T13:56:34.631Z,19.83
2018-06-13T13:59:01.903Z,20.30
2018-06-13T14:01:30.773Z,17.63
2018-06-13T14:03:58.059Z,19.53
2018-06-13T14:06:25.339Z,19.43
2018-06-13T14:08:52.641Z,17.90
2018-06-13T14:11:19.921Z,16.13
2018-06-13T14:13:47.322Z,18.60
2018-06-13T14:16:14.648Z,20.17
2018-06-13T14:18:41.961Z,16.40
2018-06-13T14:21:09.214Z,17.90
2018-06-13T14:23:36.489Z,16.20
2018-06-13T14:26:04.209Z,15.67
2018-06-13T14:28:31.485Z,14.67
2018-06-13T14:30:59.014Z,16.30
2018-06-13T14:33:26.302Z,15.13
2018-06-13T14:35:53.616Z,14.13
2018-06-13T14:38:21.079Z,12.63
2018-06-13T14:40:48.330Z,16.73
2018-06-13T14:43:15.605Z,12.27
2018-06-13T14:45:42.858Z,15.20
2018-06-13T14:48:10.110Z,17.33
2018-06-13T14:50:37.477Z,14.27
2018-06-13T14:53:04.903Z,13.63
2018-06-13T14:55:36.629Z,23.20
2018-06-13T14:58:03.935Z,11.23
2018-06-13T15:00:31.328Z,14.50
2018-06-13T15:02:58.640Z,12.80
2018-06-13T15:05:25.900Z,10.90
2018-06-13T15:07:53.274Z,13.40
2018-06-13T15:10:20.645Z,14.73
2018-06-13T15:12:48.002Z,13.73
2018-06-13T15:15:15.434Z,12.37
2018-06-13T15:17:42.743Z,12.70
2018-06-13T15:20:10.023Z,11.73
2018-06-13T15:22:37.310Z,12.77
2018-06-13T15:25:04.575Z,11.90
2018-06-13T15:27:32.402Z,12.63
2018-06-13T15:29:59.938Z,9.73
2018-06-13T15:32:27.310Z,10.67
2018-06-13T15:34:54.569Z,12.27
2018-06-13T15:37:21.815Z,12.83
2018-06-13T15:39:49.116Z,11.60
2018-06-13T15:42:16.557Z,10.90
2018-06-13T15:44:43.837Z,13.27
2018-06-13T15:47:11.289Z,14.37
2018-06-13T15:49:38.556Z,11.90
2018-06-13T15:52:05.842Z,10.33
2018-06-13T15:54:33.105Z,11.53
2018-06-13T15:57:00.370Z,10.70
2018-06-13T15:59:27.728Z,12.30
2018-06-13T16:01:55.011Z,10.30
2018-06-13T16:04:22.435Z,11.90
2018-06-13T16:06:49.693Z,10.67
2018-06-13T16:09:16.937Z,10.37
2018-06-13T16:11:44.228Z,13.60
2018-06-13T16:14:11.503Z,13.43
2018-06-13T16:16:38.939Z,18.77
2018-06-13T16:19:06.400Z,13.70
2018-06-13T16:21:33.932Z,11.70
2018-06-13T16:24:01.511Z,12.57
2018-06-13T16:26:28.799Z,16.57
2018-06-13T16:28:56.100Z,12.60
2018-06-13T16:31:23.354Z,14.87
2018-06-13T16:33:50.662Z,10.13
2018-06-13T16:36:18.099Z,9.83
2018-06-13T16:38:45.366Z,10.47
2018-06-13T16:41:12.636Z,11.47
2018-06-13T16:43:39.942Z,13.37
2018-06-13T16:46:07.209Z,11.70
2018-06-13T16:48:34.913Z,11.70
2018-06-13T16:51:08.068Z,11.13
2018-06-13T16:53:40.882Z,13.43
2018-06-13T16:56:08.147Z,10.80
2018-06-13T16:58:35.419Z,11.97
2018-06-13T17:01:02.695Z,14.33
2018-06-13T17:03:29.956Z,15.07
2018-06-13T17:05:57.363Z,12.57
2018-06-13T17:08:24.654Z,10.43
2018-06-13T17:10:51.916Z,14.90
2018-06-13T17:13:19.234Z,9.90
2018-06-13T17:15:46.587Z,10.90
2018-06-13T17:18:13.910Z,19.03
2018-06-13T17:20:41.162Z,11.37
2018-06-13T17:23:08.596Z,9.77
2018-06-13T17:25:35.871Z,14.60
2018-06-13T17:28:03.324Z,13.17
2018-06-13T17:30:30.674Z,10.03
2018-06-13T17:32:58.029Z,10.33
2018-06-13T17:35:25.352Z,12.57
2018-06-13T17:37:52.916Z,12.17
2018-06-13T17:40:20.217Z,11.40
2018-06-13T17:42:47.535Z,13.90
2018-06-13T17:45:14.945Z,9.33
2018-06-13T17:47:42.235Z,12.43
2018-06-13T17:50:09.626Z,12.50
2018-06-13T17:52:36.949Z,10.83
2018-06-13T17:55:04.426Z,11.70
2018-06-13T17:57:31.709Z,10.47
2018-06-13T17:59:58.986Z,12.53
2018-06-13T18:02:26.267Z,13.57
2018-06-13T18:04:53.526Z,15.37
2018-06-13T18:07:20.838Z,13.67
2018-06-13T18:09:48.132Z,11.70
2018-06-13T18:12:15.439Z,22.93
2018-06-13T18:14:42.787Z,15.77
2018-06-13T18:17:10.052Z,12.33
2018-06-13T18:19:37.342Z,16.23
2018-06-13T18:22:04.616Z,12.33
2018-06-13T18:24:31.970Z,13.53
2018-06-13T18:26:59.398Z,10.67
2018-06-13T18:29:26.666Z,14.17
2018-06-13T18:31:54.075Z,13.40
2018-06-13T18:34:21.410Z,9.30
2018-06-13T18:36:48.809Z,12.50
2018-06-13T18:39:16.197Z,9.47
2018-06-13T18:41:43.524Z,10.33
2018-06-13T18:44:10.885Z,13.97
2018-06-13T18:46:38.477Z,7.80
2018-06-13T18:49:05.932Z,7.47
2018-06-13T18:51:33.487Z,7.77
2018-06-13T18:54:00.942Z,10.00
2018-06-13T18:56:28.308Z,9.30
2018-06-13T18:58:55.913Z,8.27
2018-06-13T19:01:23.443Z,7.63
2018-06-13T19:03:50.900Z,8.10
2018-06-13T19:06:18.490Z,8.43
2018-06-13T19:08:45.931Z,8.17
2018-06-13T19:11:13.509Z,15.70
2018-06-13T19:13:40.949Z,7.27
2018-06-13T19:16:08.395Z,12.13
2018-06-13T19:18:35.824Z,7.90
2018-06-13T19:21:03.166Z,7.20
2018-06-13T19:23:30.545Z,9.53
2018-06-13T19:25:57.918Z,7.90
2018-06-13T19:28:25.253Z,10.20
2018-06-13T19:30:52.631Z,8.83
2018-06-13T19:33:19.979Z,6.37
2018-06-13T19:35:47.327Z,7.23
2018-06-13T19:38:14.890Z,13.33
2018-06-13T19:40:42.368Z,6.97
2018-06-13T19:43:15.255Z,7.47
2018-06-13T19:45:42.606Z,6.27
2018-06-13T19:48:15.486Z,11.80
2018-06-13T19:50:42.949Z,9.80
2018-06-13T19:53:15.827Z,10.40
2018-06-13T19:55:48.809Z,8.55
2018-06-13T19:58:16.139Z,6.60
2018-06-13T20:00:43.543Z,7.40
2018-06-13T20:03:16.289Z,8.47
2018-06-13T20:05:44.108Z,7.50
2018-06-13T20:08:11.596Z,8.60
2018-06-13T20:10:39.122Z,13.23
2018-06-13T20:13:11.950Z,9.67
2018-06-13T20:15:45.036Z,8.03
2018-06-13T20:18:17.898Z,13.90
2018-06-13T20:20:45.243Z,6.80
2018-06-13T20:23:12.545Z,9.50
2018-06-13T20:25:45.374Z,8.70
2018-06-13T20:28:18.225Z,7.60
2018-06-13T20:30:51.069Z,6.97
2018-06-13T20:33:18.300Z,11.67
2018-06-13T20:35:45.615Z,8.73
2018-06-13T20:38:13.182Z,12.00
2018-06-13T20:40:40.470Z,6.20
2018-06-13T20:43:07.836Z,9.10
2018-06-13T20:45:35.139Z,7.03
2018-06-13T20:48:02.421Z,6.97
2018-06-13T20:50:29.972Z,10.37
2018-06-13T20:52:57.307Z,5.90
2018-06-13T20:55:24.593Z,11.20
2018-06-13T20:57:52.146Z,6.90
2018-06-13T21:00:19.453Z,11.90
2018-06-13T21:02:46.694Z,6.57
2018-06-13T21:05:13.992Z,8.13
2018-06-13T21:07:41.320Z,6.97
2018-06-13T21:10:08.614Z,7.17
2018-06-13T21:12:35.869Z,8.93
2018-06-13T21:15:03.147Z,8.90
2018-06-13T21:17:30.417Z,7.40
2018-06-13T21:19:57.861Z,7.43
2018-06-13T21:22:25.175Z,6.00
2018-06-13T21:24:52.466Z,7.10
2018-06-13T21:27:19.730Z,6.40
2018-06-13T21:29:46.962Z,9.53
2018-06-13T21:32:15.331Z,11.33
2018-06-13T21:34:42.661Z,6.60
2018-06-13T21:37:10.155Z,9.23
2018-06-13T21:39:37.427Z,8.60
2018-06-13T21:42:04.658Z,8.37
2018-06-13T21:44:31.938Z,7.23
2018-06-13T21:46:59.264Z,8.27
2018-06-13T21:49:26.556Z,9.33
2018-06-13T21:51:53.780Z,11.50
2018-06-13T21:54:21.032Z,7.47
2018-06-13T21:56:48.419Z,6.50
2018-06-13T21:59:15.653Z,6.33
2018-06-13T22:01:42.906Z,8.80
2018-06-13T22:04:10.168Z,7.23
2018-06-13T22:06:37.431Z,6.23
2018-06-13T22:09:06.629Z,5.93
2018-06-13T22:11:38.218Z,6.60
2018-06-13T22:14:05.485Z,7.73
2018-06-13T22:16:32.785Z,7.23
2018-06-13T22:19:00.055Z,6.87
2018-06-13T22:21:27.366Z,7.00
2018-06-13T22:23:54.711Z,6.30
2018-06-13T22:26:21.980Z,6.40
2018-06-13T22:28:49.258Z,7.03
2018-06-13T22:31:16.500Z,7.53
2018-06-13T22:33:43.739Z,7.23
2018-06-13T22:36:11.081Z,7.40
2018-06-13T22:38:38.367Z,10.33
2018-06-13T22:41:05.650Z,6.30
2018-06-13T22:43:32.907Z,11.70
2018-06-13T22:46:00.358Z,6.80
2018-06-13T22:48:27.649Z,12.87
2018-06-13T22:50:55.093Z,10.53
2018-06-13T22:53:22.444Z,7.50
2018-06-13T22:55:49.809Z,7.43
2018-06-13T22:58:17.072Z,13.57
2018-06-13T23:01:04.838Z,14.97
2018-06-13T23:03:32.675Z,8.40
2018-06-13T23:06:02.049Z,7.93
2018-06-13T23:08:29.694Z,10.17
2018-06-13T23:10:57.070Z,7.93
2018-06-13T23:13:24.629Z,12.77
2018-06-13T23:15:51.948Z,12.40
2018-06-13T23:18:19.239Z,10.10
2018-06-13T23:20:46.494Z,7.70
2018-06-13T23:23:13.748Z,8.73
2018-06-13T23:25:40.985Z,8.80
2018-06-13T23:28:08.237Z,7.23
2018-06-13T23:30:35.497Z,7.03
2018-06-13T23:33:03.027Z,10.40
2018-06-13T23:35:30.562Z,7.07
2018-06-13T23:37:57.837Z,7.80
2018-06-13T23:40:25.188Z,7.17
2018-06-13T23:42:52.578Z,6.60
2018-06-13T23:45:19.856Z,6.50
2018-06-13T23:47:47.143Z,9.50
2018-06-13T23:50:14.623Z,9.27
2018-06-13T23:52:42.089Z,9.53
2018-06-13T23:55:09.526Z,11.33
2018-06-13T23:57:36.785Z,5.93
